Nvo Saturno Juan — EA3073 — position and weather

sailwx.info

Track history (hours):
 
Tides and Currents Weather Stations Pressure Air Temp Water Temp Dewpoint Dewpoint Depression Visibility Wind Speed Wind Dir Waves Ship Positions

Nvo Saturno Juan

Last reported at 2017-Sep-28 18:53 UTC. Time now 2017-Dec-18 11:11 UTC.
Position N 45°49' W 004°03'.
Warning: this ship's position is months out of date.

Length 18 m.

MMSI: 224029820.

Date/timePositionNaut miles runAvg speedWind from/ knotsBaromVisibWave heightAir tempDewpointWater temp
2017-Sep-28 18:53N 45°49' W 004°03'2 4.8
2017-Sep-28 18:30N 45°48' W 004°01'2 4.3
2017-Sep-28 18:01N 45°50' W 003°59'4 5.8
2017-Sep-28 17:23N 45°50' W 003°54'1 0.8
2017-Sep-28 15:41N 45°50' W 003°56'1 5.6
2017-Sep-28 15:25N 45°50' W 003°53'0 0.4
2017-Sep-28 14:34N 45°50' W 003°53'0 7.1
2017-Sep-28 14:30N 45°51' W 003°52'2 3.3
2017-Sep-28 13:59N 45°50' W 003°50'0 0.7
2017-Sep-28 13:30N 45°50' W 003°50'1 1.9
2017-Sep-28 12:57N 45°50' W 003°49'0 0.8
2017-Sep-28 12:28N 45°51' W 003°49'2 4.4
2017-Sep-28 11:54N 45°50' W 003°46'2 6.3
2017-Sep-28 11:30N 45°48' W 003°46'2 4.2
2017-Sep-28 11:00N 45°46' W 003°46'2 3.0
2017-Sep-28 10:29N 45°46' W 003°48'6 0.5
2017-Sep-27 21:54N 45°50' W 003°54'0 0.3
2017-Sep-27 21:23N 45°50' W 003°54'0 0.3
2017-Sep-27 20:55N 45°49' W 003°54'0 0.4
2017-Sep-27 20:30N 45°49' W 003°54'0 0.4
2017-Sep-27 20:00N 45°49' W 003°54'0 0.4
2017-Sep-27 19:30N 45°49' W 003°54'0 0.3
2017-Sep-27 19:00N 45°49' W 003°54'1 1.8
2017-Sep-27 18:30N 45°48' W 003°54'2 4.1
2017-Sep-27 18:00N 45°46' W 003°56'2 3.3
2017-Sep-27 17:30N 45°46' W 003°54'3 5.4
2017-Sep-27 17:00N 45°48' W 003°50'1 1.8
2017-Sep-27 16:30N 45°48' W 003°50'1 1.9
2017-Sep-27 16:00N 45°48' W 003°51'1 1.9
2017-Sep-27 15:25N 45°49' W 003°50'1 2.4
2017-Sep-27 15:00N 45°48' W 003°49'1 2.1
2017-Sep-27 14:26N 45°49' W 003°50'1 2.9
2017-Sep-27 14:00N 45°48' W 003°49'1 1.1
2017-Sep-27 13:00N 45°47' W 003°48'3 6.5
2017-Sep-27 12:29N 45°44' W 003°47'0 0.1
2017-Sep-27 10:04N 45°44' W 003°47'15 2.8
2017-Sep-27 04:42N 45°53' W 004°04'0 0.5
2017-Sep-27 03:46N 45°53' W 004°04'2 0.4
2017-Sep-26 22:44N 45°50' W 004°05'0 0.9
2017-Sep-26 22:30N 45°50' W 004°05'1 0.9
2017-Sep-26 21:52N 45°50' W 004°05'0 0.9
2017-Sep-26 21:30N 45°49' W 004°05'1 0.9
2017-Sep-26 20:38N 45°49' W 004°05'1 5.4
2017-Sep-26 20:29N 45°49' W 004°04'7 7.2
2017-Sep-26 19:32N 45°47' W 003°54'2 0.1
2017-Sep-24 22:15N 45°47' W 003°51'1 0.6
2017-Sep-24 19:42N 45°48' W 003°52'0 0.4
2017-Sep-24 18:55N 45°48' W 003°52'1 3.3
2017-Sep-24 18:30N 45°48' W 003°54'1 2.7
2017-Sep-24 18:00N 45°48' W 003°56'2 2.0
2017-Sep-24 17:00N 45°49' W 003°58'3 3.5
2017-Sep-24 16:12N 45°50' W 004°02'1 3.2
2017-Sep-24 15:58N 45°50' W 004°03'5 0.7
2017-Sep-24 08:44N 45°49' W 004°10'0 1.3
2017-Sep-24 08:22N 45°49' W 004°10'2 1.5
2017-Sep-24 07:19N 45°49' W 004°08'5 4.9
2017-Sep-24 06:23N 45°46' W 004°03'3 6.7
2017-Sep-24 05:53N 45°44' W 003°60'1 2.3
2017-Sep-24 05:29N 45°43' W 003°59'0 0.2
2017-Sep-24 04:49N 45°43' W 003°59'0 0.2
2017-Sep-24 04:30N 45°43' W 003°59'0 0.2
2017-Sep-24 03:41N 45°43' W 003°59'0 0.2
2017-Sep-24 03:27N 45°43' W 003°59'0 0.2
2017-Sep-24 03:00N 45°43' W 003°59'0 0.4
2017-Sep-24 02:30N 45°44' W 003°59'0 0.5
2017-Sep-24 02:00N 45°44' W 003°59'0 0.6
2017-Sep-24 01:30N 45°44' W 003°59'0 0.7
2017-Sep-24 01:00N 45°44' W 003°59'0 0.8
2017-Sep-24 00:29N 45°45' W 003°60'1 0.9
2017-Sep-23 23:17N 45°45' W 004°01'0 1.1
2017-Sep-23 22:53N 45°45' W 004°02'  
2017-Sep-21 07:37N 45°49' W 004°14'2 5.2
2017-Sep-21 07:14N 45°48' W 004°12'0 0.7
2017-Sep-21 06:57N 45°48' W 004°12'1 1.6
2017-Sep-21 06:24N 45°48' W 004°11'2 5.9
2017-Sep-21 06:00N 45°51' W 004°10'4 6.8
2017-Sep-21 05:29N 45°53' W 004°07'1 1.1
2017-Sep-21 04:57N 45°54' W 004°07'1 0.8
2017-Sep-21 04:20N 45°54' W 004°07'0 0.8
2017-Sep-21 03:58N 45°53' W 004°07'0 0.8
2017-Sep-21 03:31N 45°53' W 004°07'0 0.8
2017-Sep-21 03:00N 45°53' W 004°08'1 0.8
2017-Sep-21 02:22N 45°52' W 004°08'0 0.9
2017-Sep-21 01:50N 45°52' W 004°08'0 0.9
2017-Sep-21 01:30N 45°51' W 004°08'0 0.6
2017-Sep-21 01:00N 45°51' W 004°08'0 0.5
2017-Sep-21 00:26N 45°51' W 004°08'0 0.4
2017-Sep-20 23:44N 45°50' W 004°08'0 0.4
2017-Sep-20 23:24N 45°50' W 004°08'0 0.4
2017-Sep-20 23:00N 45°50' W 004°07'0 0.5
2017-Sep-20 22:30N 45°50' W 004°07'0 0.5
2017-Sep-20 22:00N 45°50' W 004°07'0 0.1
2017-Sep-20 21:30N 45°50' W 004°07'0 0.3
2017-Sep-20 21:00N 45°50' W 004°07'0 0.4
2017-Sep-20 20:27N 45°50' W 004°07'0 0.5
2017-Sep-20 19:55N 45°50' W 004°07'0 0.5
2017-Sep-20 19:24N 45°50' W 004°07'1 1.1
2017-Sep-20 18:51N 45°49' W 004°08'2 4.1
2017-Sep-20 18:21N 45°50' W 004°11'2 6.7
2017-Sep-20 18:00N 45°47' W 004°10'0 0.5
2017-Sep-20 17:26N 45°47' W 004°11'15 4.1
2017-Sep-20 13:49N 45°55' W 004°29'2 6.5
2017-Sep-20 13:30N 45°56' W 004°31'2 1.4
2017-Sep-20 11:54N 45°56' W 004°34'1 1.0
2017-Sep-20 10:44N 45°55' W 004°34'1 1.7
2017-Sep-20 10:24N 45°55' W 004°33'1 2.3
2017-Sep-20 09:59N 45°56' W 004°34'1 2.5
2017-Sep-20 09:29N 45°56' W 004°32'2 3.2
2017-Sep-20 09:00N 45°58' W 004°31'2 3.2
2017-Sep-20 08:22N 45°60' W 004°32'4 6.7
2017-Sep-20 07:42N 46°04' W 004°33'4 2.8
2017-Sep-20 06:08N 46°02' W 004°28'1 7.0
2017-Sep-20 05:58N 46°01' W 004°26'2 4.4
2017-Sep-20 05:29N 46°02' W 004°23'2 0.8
2017-Sep-20 02:30N 46°00' W 004°25'0 0.5
2017-Sep-20 02:00N 45°60' W 004°26'  
Track history (hours):
 
Tides and Currents Weather Stations Pressure Air Temp Water Temp Dewpoint Dewpoint Depression Visibility Wind Speed Wind Dir Waves Ship Positions

Nvo Saturno Juan

Last reported at 2017-Sep-28 18:53 UTC. Time now 2017-Dec-18 11:11 UTC.
Position N 45°49' W 004°03'.
Warning: this ship's position is months out of date.

Length 18 m.

MMSI: 224029820.

Date/timePositionNaut miles runAvg speedWind from/ knotsBaromVisibWave heightAir tempDewpointWater temp
2017-Sep-28 18:53N 45°49' W 004°03'2 4.8
2017-Sep-28 18:30N 45°48' W 004°01'2 4.3
2017-Sep-28 18:01N 45°50' W 003°59'4 5.8
2017-Sep-28 17:23N 45°50' W 003°54'1 0.8
2017-Sep-28 15:41N 45°50' W 003°56'1 5.6
2017-Sep-28 15:25N 45°50' W 003°53'0 0.4
2017-Sep-28 14:34N 45°50' W 003°53'0 7.1
2017-Sep-28 14:30N 45°51' W 003°52'2 3.3
2017-Sep-28 13:59N 45°50' W 003°50'0 0.7
2017-Sep-28 13:30N 45°50' W 003°50'1 1.9
2017-Sep-28 12:57N 45°50' W 003°49'0 0.8
2017-Sep-28 12:28N 45°51' W 003°49'2 4.4
2017-Sep-28 11:54N 45°50' W 003°46'2 6.3
2017-Sep-28 11:30N 45°48' W 003°46'2 4.2
2017-Sep-28 11:00N 45°46' W 003°46'2 3.0
2017-Sep-28 10:29N 45°46' W 003°48'6 0.5
2017-Sep-27 21:54N 45°50' W 003°54'0 0.3
2017-Sep-27 21:23N 45°50' W 003°54'0 0.3
2017-Sep-27 20:55N 45°49' W 003°54'0 0.4
2017-Sep-27 20:30N 45°49' W 003°54'0 0.4
2017-Sep-27 20:00N 45°49' W 003°54'0 0.4
2017-Sep-27 19:30N 45°49' W 003°54'0 0.3
2017-Sep-27 19:00N 45°49' W 003°54'1 1.8
2017-Sep-27 18:30N 45°48' W 003°54'2 4.1
2017-Sep-27 18:00N 45°46' W 003°56'2 3.3
2017-Sep-27 17:30N 45°46' W 003°54'3 5.4
2017-Sep-27 17:00N 45°48' W 003°50'1 1.8
2017-Sep-27 16:30N 45°48' W 003°50'1 1.9
2017-Sep-27 16:00N 45°48' W 003°51'1 1.9
2017-Sep-27 15:25N 45°49' W 003°50'1 2.4
2017-Sep-27 15:00N 45°48' W 003°49'1 2.1
2017-Sep-27 14:26N 45°49' W 003°50'1 2.9
2017-Sep-27 14:00N 45°48' W 003°49'1 1.1
2017-Sep-27 13:00N 45°47' W 003°48'3 6.5
2017-Sep-27 12:29N 45°44' W 003°47'0 0.1
2017-Sep-27 10:04N 45°44' W 003°47'15 2.8
2017-Sep-27 04:42N 45°53' W 004°04'0 0.5
2017-Sep-27 03:46N 45°53' W 004°04'2 0.4
2017-Sep-26 22:44N 45°50' W 004°05'0 0.9
2017-Sep-26 22:30N 45°50' W 004°05'1 0.9
2017-Sep-26 21:52N 45°50' W 004°05'0 0.9
2017-Sep-26 21:30N 45°49' W 004°05'1 0.9
2017-Sep-26 20:38N 45°49' W 004°05'1 5.4
2017-Sep-26 20:29N 45°49' W 004°04'7 7.2
2017-Sep-26 19:32N 45°47' W 003°54'2 0.1
2017-Sep-24 22:15N 45°47' W 003°51'1 0.6
2017-Sep-24 19:42N 45°48' W 003°52'0 0.4
2017-Sep-24 18:55N 45°48' W 003°52'1 3.3
2017-Sep-24 18:30N 45°48' W 003°54'1 2.7
2017-Sep-24 18:00N 45°48' W 003°56'2 2.0
2017-Sep-24 17:00N 45°49' W 003°58'3 3.5
2017-Sep-24 16:12N 45°50' W 004°02'1 3.2
2017-Sep-24 15:58N 45°50' W 004°03'5 0.7
2017-Sep-24 08:44N 45°49' W 004°10'0 1.3
2017-Sep-24 08:22N 45°49' W 004°10'2 1.5
2017-Sep-24 07:19N 45°49' W 004°08'5 4.9
2017-Sep-24 06:23N 45°46' W 004°03'3 6.7
2017-Sep-24 05:53N 45°44' W 003°60'1 2.3
2017-Sep-24 05:29N 45°43' W 003°59'0 0.2
2017-Sep-24 04:49N 45°43' W 003°59'0 0.2
2017-Sep-24 04:30N 45°43' W 003°59'0 0.2
2017-Sep-24 03:41N 45°43' W 003°59'0 0.2
2017-Sep-24 03:27N 45°43' W 003°59'0 0.2
2017-Sep-24 03:00N 45°43' W 003°59'0 0.4
2017-Sep-24 02:30N 45°44' W 003°59'0 0.5
2017-Sep-24 02:00N 45°44' W 003°59'0 0.6
2017-Sep-24 01:30N 45°44' W 003°59'0 0.7
2017-Sep-24 01:00N 45°44' W 003°59'0 0.8
2017-Sep-24 00:29N 45°45' W 003°60'1 0.9
2017-Sep-23 23:17N 45°45' W 004°01'0 1.1
2017-Sep-23 22:53N 45°45' W 004°02'  
2017-Sep-21 07:37N 45°49' W 004°14'2 5.2
2017-Sep-21 07:14N 45°48' W 004°12'0 0.7
2017-Sep-21 06:57N 45°48' W 004°12'1 1.6
2017-Sep-21 06:24N 45°48' W 004°11'2 5.9
2017-Sep-21 06:00N 45°51' W 004°10'4 6.8
2017-Sep-21 05:29N 45°53' W 004°07'1 1.1
2017-Sep-21 04:57N 45°54' W 004°07'1 0.8
2017-Sep-21 04:20N 45°54' W 004°07'0 0.8
2017-Sep-21 03:58N 45°53' W 004°07'0 0.8
2017-Sep-21 03:31N 45°53' W 004°07'0 0.8
2017-Sep-21 03:00N 45°53' W 004°08'1 0.8
2017-Sep-21 02:22N 45°52' W 004°08'0 0.9
2017-Sep-21 01:50N 45°52' W 004°08'0 0.9
2017-Sep-21 01:30N 45°51' W 004°08'0 0.6
2017-Sep-21 01:00N 45°51' W 004°08'0 0.5
2017-Sep-21 00:26N 45°51' W 004°08'0 0.4
2017-Sep-20 23:44N 45°50' W 004°08'0 0.4
2017-Sep-20 23:24N 45°50' W 004°08'0 0.4
2017-Sep-20 23:00N 45°50' W 004°07'0 0.5
2017-Sep-20 22:30N 45°50' W 004°07'0 0.5
2017-Sep-20 22:00N 45°50' W 004°07'0 0.1
2017-Sep-20 21:30N 45°50' W 004°07'0 0.3
2017-Sep-20 21:00N 45°50' W 004°07'0 0.4
2017-Sep-20 20:27N 45°50' W 004°07'0 0.5
2017-Sep-20 19:55N 45°50' W 004°07'0 0.5
2017-Sep-20 19:24N 45°50' W 004°07'1 1.1
2017-Sep-20 18:51N 45°49' W 004°08'2 4.1
2017-Sep-20 18:21N 45°50' W 004°11'2 6.7
2017-Sep-20 18:00N 45°47' W 004°10'0 0.5
2017-Sep-20 17:26N 45°47' W 004°11'15 4.1
2017-Sep-20 13:49N 45°55' W 004°29'2 6.5
2017-Sep-20 13:30N 45°56' W 004°31'2 1.4
2017-Sep-20 11:54N 45°56' W 004°34'1 1.0
2017-Sep-20 10:44N 45°55' W 004°34'1 1.7
2017-Sep-20 10:24N 45°55' W 004°33'1 2.3
2017-Sep-20 09:59N 45°56' W 004°34'1 2.5
2017-Sep-20 09:29N 45°56' W 004°32'2 3.2
2017-Sep-20 09:00N 45°58' W 004°31'2 3.2
2017-Sep-20 08:22N 45°60' W 004°32'4 6.7
2017-Sep-20 07:42N 46°04' W 004°33'4 2.8
2017-Sep-20 06:08N 46°02' W 004°28'1 7.0
2017-Sep-20 05:58N 46°01' W 004°26'2 4.4
2017-Sep-20 05:29N 46°02' W 004°23'2 0.8
2017-Sep-20 02:30N 46°00' W 004°25'0 0.5
2017-Sep-20 02:00N 45°60' W 004°26'  

Dump ship's entire track history